createdAt,value
2023-01-12T00:02:45.521Z,2.07
2023-01-12T00:05:57.425Z,1.30
2023-01-12T00:09:09.440Z,1.20
2023-01-12T00:12:36.455Z,1.77
2023-01-12T00:15:49.581Z,1.40
2023-01-12T00:19:14.459Z,1.37
2023-01-12T00:22:30.552Z,0.90
2023-01-12T00:25:42.539Z,1.60
2023-01-12T00:28:56.532Z,1.70
2023-01-12T00:32:21.578Z,1.73
2023-01-12T00:35:22.536Z,2.03
2023-01-12T00:38:34.522Z,1.93
2023-01-12T00:41:36.843Z,1.83
2023-01-12T00:45:08.123Z,1.63
2023-01-12T00:48:08.567Z,1.73
2023-01-12T00:51:20.629Z,2.00
2023-01-12T00:54:28.651Z,1.83
2023-01-12T00:57:52.659Z,1.77
2023-01-12T01:01:06.749Z,1.90
2023-01-12T01:04:19.692Z,2.03
2023-01-12T01:07:31.648Z,2.77
2023-01-12T01:10:43.651Z,1.90
2023-01-12T01:13:56.681Z,1.77
2023-01-12T01:17:22.705Z,2.13
2023-01-12T01:20:24.742Z,2.00
2023-01-12T01:23:48.712Z,1.70
2023-01-12T01:26:48.716Z,2.20
2023-01-12T01:30:00.677Z,2.00
2023-01-12T01:33:14.669Z,1.90
2023-01-12T01:36:38.778Z,2.17
2023-01-12T01:39:38.814Z,2.13
2023-01-12T01:43:04.820Z,1.53
2023-01-12T01:46:18.739Z,1.97
2023-01-12T01:49:50.779Z,2.03
2023-01-12T01:53:02.761Z,1.70
2023-01-12T01:56:27.778Z,2.87
2023-01-12T01:59:39.779Z,2.00
2023-01-12T02:03:03.841Z,2.10
2023-01-12T02:06:29.867Z,1.70
2023-01-12T02:09:53.807Z,2.00
2023-01-12T02:12:59.548Z,2.07
2023-01-12T02:16:33.829Z,1.87
2023-01-12T02:19:49.884Z,2.33
2023-01-12T02:23:27.838Z,2.20
2023-01-12T02:26:46.940Z,2.07
2023-01-12T02:30:16.935Z,2.17
2023-01-12T02:33:32.986Z,2.13
2023-01-12T02:36:57.059Z,2.00
2023-01-12T02:40:08.923Z,2.33
2023-01-12T02:43:32.982Z,2.30
2023-01-12T02:46:45.051Z,2.00
2023-01-12T02:50:11.974Z,2.40
2023-01-12T02:53:25.059Z,2.13
2023-01-12T02:56:49.962Z,2.00
2023-01-12T03:00:03.026Z,1.97
2023-01-12T03:03:15.047Z,1.87
2023-01-12T03:06:29.064Z,1.90
2023-01-12T03:09:53.057Z,1.77
2023-01-12T03:13:05.024Z,3.30
2023-01-12T03:16:29.047Z,2.40
2023-01-12T03:19:41.026Z,2.33
2023-01-12T03:23:07.025Z,2.33
2023-01-12T03:26:19.146Z,2.70
2023-01-12T03:29:43.018Z,2.00
2023-01-12T03:32:55.169Z,2.37
2023-01-12T03:36:21.122Z,2.93
2023-01-12T03:39:35.094Z,2.23
2023-01-12T03:43:00.085Z,2.70
2023-01-12T03:46:16.871Z,1.57
2023-01-12T03:49:41.191Z,1.90
2023-01-12T03:52:53.184Z,2.10
2023-01-12T03:56:19.160Z,1.70
2023-01-12T03:59:31.201Z,1.80
2023-01-12T04:02:43.222Z,2.47
2023-01-12T04:06:07.240Z,1.83
2023-01-12T04:09:07.219Z,1.67
2023-01-12T04:12:33.214Z,2.27
2023-01-12T04:15:33.195Z,1.80
2023-01-12T04:18:45.253Z,1.90
2023-01-12T04:21:51.297Z,1.60
2023-01-12T04:25:03.299Z,1.50
2023-01-12T04:28:17.236Z,1.33
2023-01-12T04:31:29.308Z,1.40
2023-01-12T04:34:29.295Z,1.40
2023-01-12T04:37:41.293Z,1.70
2023-01-12T04:40:41.329Z,1.43
2023-01-12T04:44:06.362Z,1.30
2023-01-12T04:47:06.355Z,1.37
2023-01-12T04:50:30.657Z,1.50
2023-01-12T04:53:30.396Z,1.03
2023-01-12T04:56:55.396Z,1.40
2023-01-12T05:00:09.329Z,1.20
2023-01-12T05:03:34.393Z,0.90
2023-01-12T05:06:46.342Z,1.53
2023-01-12T05:10:04.102Z,1.17
2023-01-12T05:13:04.469Z,1.20
2023-01-12T05:16:36.448Z,0.93
2023-01-12T05:19:39.444Z,0.87
2023-01-12T05:22:51.466Z,0.90
2023-01-12T05:25:52.475Z,1.03
2023-01-12T05:29:05.460Z,1.20
2023-01-12T05:32:19.495Z,1.00
2023-01-12T05:35:43.513Z,1.10
2023-01-12T05:38:55.454Z,0.87
2023-01-12T05:42:17.092Z,0.97
2023-01-12T05:45:18.526Z,0.80
2023-01-12T05:48:44.521Z,0.97
2023-01-12T05:51:47.515Z,0.70
2023-01-12T05:55:01.605Z,0.40
2023-01-12T05:58:01.590Z,1.00
2023-01-12T06:01:13.562Z,0.60
2023-01-12T06:04:38.617Z,1.00
2023-01-12T06:07:38.586Z,0.80
2023-01-12T06:10:50.574Z,1.27
2023-01-12T06:13:56.482Z,1.27
2023-01-12T06:17:08.640Z,0.60
2023-01-12T06:20:22.626Z,0.85
2023-01-12T06:23:35.008Z,0.70
2023-01-12T06:26:37.636Z,0.43
2023-01-12T06:29:50.768Z,1.03
2023-01-12T06:32:51.637Z,0.93
2023-01-12T06:36:16.762Z,0.70
2023-01-12T06:39:28.731Z,0.70
2023-01-12T06:42:43.665Z,0.70
2023-01-12T06:45:43.711Z,0.57
2023-01-12T06:48:55.692Z,0.77
2023-01-12T06:52:09.708Z,0.70
2023-01-12T06:55:33.768Z,0.73
2023-01-12T06:58:33.681Z,0.70
2023-01-12T07:01:46.829Z,0.75
2023-01-12T07:04:46.864Z,0.80
2023-01-12T07:08:12.947Z,0.80
2023-01-12T07:11:25.713Z,0.60
2023-01-12T07:14:38.788Z,0.43
2023-01-12T07:17:38.836Z,0.77
2023-01-12T07:20:51.828Z,0.73
2023-01-12T07:24:09.807Z,0.90
2023-01-12T07:27:21.844Z,0.57
2023-01-12T07:30:22.839Z,0.70
2023-01-12T07:33:34.846Z,0.70
2023-01-12T07:36:46.855Z,0.53
2023-01-12T07:40:12.919Z,0.50
2023-01-12T07:43:24.905Z,0.60
2023-01-12T07:46:36.952Z,0.53
2023-01-12T07:49:36.858Z,0.80
2023-01-12T07:52:48.877Z,0.60
2023-01-12T07:56:02.909Z,0.60
2023-01-12T07:59:17.965Z,0.43
2023-01-12T08:02:29.927Z,0.40
2023-01-12T08:05:55.083Z,0.60
2023-01-12T08:08:54.956Z,0.50
2023-01-12T08:12:20.991Z,0.50
2023-01-12T08:15:32.963Z,0.40
2023-01-12T08:19:00.004Z,0.40
2023-01-12T08:22:11.995Z,0.80
2023-01-12T08:25:37.991Z,0.43
2023-01-12T08:28:52.046Z,0.40
2023-01-12T08:32:04.869Z,0.70
2023-01-12T08:35:16.055Z,0.50
2023-01-12T08:38:40.015Z,0.50
2023-01-12T08:41:52.033Z,0.60
2023-01-12T08:45:19.071Z,0.50
2023-01-12T08:48:20.066Z,0.50
2023-01-12T08:51:35.074Z,0.50
2023-01-12T08:54:47.052Z,0.50
2023-01-12T08:58:02.089Z,0.37
2023-01-12T09:01:16.255Z,0.67
2023-01-12T09:04:40.092Z,0.50
2023-01-12T09:07:40.170Z,0.43
2023-01-12T09:10:52.126Z,0.53
2023-01-12T09:14:04.191Z,0.40
2023-01-12T09:17:31.143Z,0.60
2023-01-12T09:20:31.122Z,0.67
2023-01-12T09:23:55.169Z,0.67
2023-01-12T09:27:07.247Z,0.33
2023-01-12T09:30:20.235Z,0.50
2023-01-12T09:33:34.239Z,0.40
2023-01-12T09:36:59.246Z,0.70
2023-01-12T09:39:59.187Z,0.50
2023-01-12T09:43:25.960Z,1.05
2023-01-12T09:46:45.658Z,0.60
2023-01-12T09:50:12.297Z,0.90
2023-01-12T09:53:25.253Z,1.07
2023-01-12T09:56:51.253Z,1.00
2023-01-12T10:00:05.275Z,1.35
2023-01-12T10:03:33.369Z,1.53
2023-01-12T10:06:46.264Z,1.50
2023-01-12T10:10:10.301Z,1.63
2023-01-12T10:13:22.322Z,1.67
2023-01-12T10:16:46.419Z,1.43
2023-01-12T10:20:00.354Z,1.40
2023-01-12T10:23:27.322Z,1.85
2023-01-12T10:26:40.347Z,1.80
2023-01-12T10:29:52.396Z,2.40
2023-01-12T10:32:52.400Z,1.77
2023-01-12T10:36:17.397Z,1.65
2023-01-12T10:39:31.427Z,1.75
2023-01-12T10:43:04.174Z,1.33
2023-01-12T10:46:26.388Z,1.70
2023-01-12T10:49:41.487Z,2.13
2023-01-12T10:52:53.426Z,1.77
2023-01-12T10:56:20.432Z,1.67
2023-01-12T10:59:44.490Z,1.60
2023-01-12T11:03:08.483Z,1.50
2023-01-12T11:05:56.907Z,1.40
2023-01-12T11:09:21.489Z,2.07
2023-01-12T11:12:44.558Z,1.40
2023-01-12T11:16:09.619Z,1.70
2023-01-12T11:19:24.554Z,1.57
2023-01-12T11:22:48.588Z,2.10
2023-01-12T11:26:00.560Z,2.10
2023-01-12T11:29:26.523Z,1.70
2023-01-12T11:32:39.619Z,1.70
2023-01-12T11:36:04.664Z,2.03
2023-01-12T11:39:17.621Z,1.70
2023-01-12T11:42:49.321Z,2.00
2023-01-12T11:46:07.698Z,2.00
2023-01-12T11:49:32.649Z,2.00
2023-01-12T11:52:44.639Z,2.10
2023-01-12T11:56:11.683Z,1.90
2023-01-12T11:59:26.693Z,2.15
2023-01-12T12:02:56.716Z,1.97
2023-01-12T12:06:21.699Z,1.55
2023-01-12T12:09:45.709Z,1.87
2023-01-12T12:13:09.742Z,1.90
2023-01-12T12:16:22.681Z,2.00
2023-01-12T12:19:51.730Z,1.70
2023-01-12T12:23:06.749Z,2.63
2023-01-12T12:26:30.734Z,2.05
2023-01-12T12:29:45.740Z,2.50
2023-01-12T12:33:09.818Z,1.60
2023-01-12T12:36:27.810Z,1.93
2023-01-12T12:39:59.861Z,1.70
2023-01-12T12:43:20.309Z,2.40
2023-01-12T12:46:45.759Z,1.80
2023-01-12T12:49:57.798Z,2.03
2023-01-12T12:53:28.816Z,2.55
2023-01-12T12:56:45.770Z,2.03
2023-01-12T13:00:18.889Z,2.30
2023-01-12T13:03:31.033Z,2.87
2023-01-12T13:06:54.840Z,2.50
2023-01-12T13:10:09.886Z,3.13
2023-01-12T13:13:47.864Z,2.20
2023-01-12T13:16:56.913Z,2.93
2023-01-12T13:20:26.104Z,2.25
2023-01-12T13:23:38.996Z,2.20
2023-01-12T13:27:04.964Z,2.50
2023-01-12T13:30:19.198Z,1.60
2023-01-12T13:33:48.980Z,2.70
2023-01-12T13:37:00.992Z,2.63
2023-01-12T13:40:26.003Z,1.80
2023-01-12T13:43:39.057Z,1.37
2023-01-12T13:47:05.972Z,1.90
2023-01-12T13:50:21.008Z,1.30
2023-01-12T13:53:47.031Z,1.57
2023-01-12T13:56:47.083Z,1.37
2023-01-12T14:00:22.015Z,1.60
2023-01-12T14:03:50.085Z,0.95
2023-01-12T14:07:03.032Z,1.20
2023-01-12T14:10:31.049Z,1.20
2023-01-12T14:13:58.039Z,1.00
2023-01-12T14:17:42.793Z,1.07
2023-01-12T14:20:57.059Z,1.20
2023-01-12T14:24:33.222Z,0.80
2023-01-12T14:27:46.078Z,1.03
2023-01-12T14:31:15.185Z,1.20
2023-01-12T14:34:27.132Z,1.00
2023-01-12T14:37:53.189Z,0.87
2023-01-12T14:41:05.131Z,0.50
2023-01-12T14:44:34.831Z,0.30
2023-01-12T14:47:48.255Z,0.87
2023-01-12T14:51:23.201Z,0.57
2023-01-12T14:54:42.187Z,0.40
2023-01-12T14:58:06.179Z,0.50
2023-01-12T15:01:06.290Z,0.25
2023-01-12T15:04:34.265Z,0.50
2023-01-12T15:07:46.312Z,0.20
2023-01-12T15:11:12.236Z,0.40
2023-01-12T15:14:24.243Z,0.27
2023-01-12T15:17:43.455Z,0.30
2023-01-12T15:21:06.730Z,0.20
2023-01-12T15:24:40.899Z,0.20
2023-01-12T15:27:55.332Z,0.40
2023-01-12T15:31:08.376Z,0.20
2023-01-12T15:34:23.387Z,0.30
2023-01-12T15:40:43.381Z,0.20
2023-01-12T15:44:09.332Z,0.30
2023-01-12T15:47:09.449Z,0.20
2023-01-12T15:50:22.359Z,0.27
2023-01-12T15:53:37.436Z,0.40
2023-01-12T15:56:49.487Z,0.50
2023-01-12T16:00:06.441Z,0.47
2023-01-12T16:03:48.324Z,0.40
2023-01-12T16:06:19.446Z,0.50
2023-01-12T16:09:35.388Z,0.77
2023-01-12T16:12:35.445Z,0.80
2023-01-12T16:16:01.415Z,0.90
2023-01-12T16:19:01.466Z,0.93
2023-01-12T16:22:13.498Z,1.10
2023-01-12T16:25:13.506Z,0.70
2023-01-12T16:28:38.500Z,1.00
2023-01-12T16:31:52.501Z,0.87
2023-01-12T16:35:16.465Z,1.00
2023-01-12T16:38:16.463Z,1.20
2023-01-12T16:41:41.595Z,1.07
2023-01-12T16:44:53.539Z,0.87
2023-01-12T16:48:21.643Z,1.00
2023-01-12T16:51:36.614Z,0.83
2023-01-12T16:55:01.632Z,0.97
2023-01-12T16:58:01.587Z,1.10
2023-01-12T17:01:14.669Z,1.00
2023-01-12T17:04:28.601Z,1.03
2023-01-12T17:07:54.217Z,1.10
2023-01-12T17:10:52.651Z,0.90
2023-01-12T17:14:17.593Z,1.10
2023-01-12T17:17:29.600Z,1.10
2023-01-12T17:20:54.627Z,1.40
2023-01-12T17:24:06.708Z,1.65
2023-01-12T17:27:30.642Z,1.50
2023-01-12T17:30:33.754Z,1.37
2023-01-12T17:34:00.665Z,1.53
2023-01-12T17:37:15.768Z,1.30
2023-01-12T17:40:28.742Z,1.20
2023-01-12T17:43:40.787Z,1.20
2023-01-12T17:47:04.699Z,1.10
2023-01-12T17:50:16.755Z,0.95
2023-01-12T17:53:42.759Z,1.00
2023-01-12T17:56:54.831Z,1.10
2023-01-12T18:00:18.805Z,1.00
2023-01-12T18:03:30.807Z,0.87
2023-01-12T18:06:42.807Z,0.97
2023-01-12T18:10:08.769Z,1.00
2023-01-12T18:13:08.766Z,1.10
2023-01-12T18:16:36.860Z,0.90
2023-01-12T18:19:36.788Z,0.80
2023-01-12T18:22:48.872Z,0.90
2023-01-12T18:26:02.864Z,1.03
2023-01-12T18:29:26.831Z,1.20
2023-01-12T18:32:26.834Z,1.30
2023-01-12T18:35:38.927Z,0.90
2023-01-12T18:38:41.896Z,0.93
2023-01-12T18:42:17.788Z,1.00
2023-01-12T18:45:18.934Z,1.50
2023-01-12T18:48:33.950Z,1.07
2023-01-12T18:51:40.089Z,1.00
2023-01-12T18:54:53.885Z,1.30
2023-01-12T18:58:07.987Z,1.15
2023-01-12T19:01:21.088Z,1.30
2023-01-12T19:04:34.011Z,1.30
2023-01-12T19:07:47.981Z,1.40
2023-01-12T19:10:51.038Z,0.97
2023-01-12T19:14:28.291Z,1.20
2023-01-12T19:17:41.994Z,1.70
2023-01-12T19:20:53.035Z,1.35
2023-01-12T19:23:58.997Z,1.05
2023-01-12T19:27:16.953Z,1.00
2023-01-12T19:30:31.066Z,1.03
2023-01-12T19:33:56.046Z,1.40
2023-01-12T19:36:56.126Z,1.20
2023-01-12T19:40:22.105Z,1.20
2023-01-12T19:43:34.117Z,1.40
2023-01-12T19:46:59.032Z,1.55
2023-01-12T19:49:59.152Z,1.30
2023-01-12T19:53:24.117Z,1.50
2023-01-12T19:56:36.132Z,1.60
2023-01-12T19:59:51.160Z,1.15
2023-01-12T20:03:14.186Z,1.25
2023-01-12T20:06:26.139Z,1.10
2023-01-12T20:09:26.203Z,1.20
2023-01-12T20:12:50.157Z,1.40
2023-01-12T20:16:02.316Z,1.20
2023-01-12T20:19:32.464Z,1.17
2023-01-12T20:22:36.238Z,1.60
2023-01-12T20:25:48.175Z,1.10
2023-01-12T20:29:00.248Z,1.00
2023-01-12T20:32:12.271Z,1.10
2023-01-12T20:35:28.199Z,1.43
2023-01-12T20:38:40.220Z,1.03
2023-01-12T20:41:40.303Z,1.20
2023-01-12T20:44:52.279Z,1.30
2023-01-12T20:48:04.326Z,1.30
2023-01-12T20:51:33.322Z,1.37
2023-01-12T20:54:36.388Z,1.27
2023-01-12T20:58:01.369Z,1.35
2023-01-12T21:01:02.506Z,1.33
2023-01-12T21:04:15.325Z,1.63
2023-01-12T21:07:29.330Z,1.50
2023-01-12T21:10:42.400Z,1.75
2023-01-12T21:13:42.380Z,1.57
2023-01-12T21:17:06.323Z,1.40
2023-01-12T21:20:06.361Z,1.77
2023-01-12T21:23:32.480Z,1.70
2023-01-12T21:26:32.412Z,1.95
2023-01-12T21:29:45.415Z,1.80
2023-01-12T21:32:45.477Z,1.80
2023-01-12T21:36:09.471Z,1.83
2023-01-12T21:39:23.474Z,1.70
2023-01-12T21:42:41.408Z,1.70
2023-01-12T21:45:41.546Z,1.50
2023-01-12T21:48:53.479Z,1.90
2023-01-12T21:51:53.532Z,1.50
2023-01-12T21:55:20.449Z,1.57
2023-01-12T21:58:20.490Z,1.63
2023-01-12T22:01:36.633Z,1.60
2023-01-12T22:04:48.519Z,1.63
2023-01-12T22:07:48.573Z,1.93
2023-01-12T22:11:14.537Z,1.35
2023-01-12T22:14:14.526Z,1.20
2023-01-12T22:17:26.550Z,1.13
2023-01-12T22:20:38.589Z,1.50
2023-01-12T22:24:02.609Z,1.00
2023-01-12T22:27:16.553Z,1.10
2023-01-12T22:30:43.597Z,1.00
2023-01-12T22:33:43.582Z,1.00
2023-01-12T22:36:55.681Z,1.07
2023-01-12T22:39:56.654Z,0.70
2023-01-12T22:43:41.654Z,0.95
2023-01-12T22:46:41.662Z,0.80
2023-01-12T22:49:54.745Z,0.85
2023-01-12T22:52:54.815Z,0.90
2023-01-12T22:56:18.718Z,1.00
2023-01-12T22:59:32.765Z,1.00
2023-01-12T23:02:51.018Z,1.10
2023-01-12T23:06:04.670Z,0.83
2023-01-12T23:09:16.682Z,0.95
2023-01-12T23:12:19.705Z,0.83
2023-01-12T23:15:44.790Z,0.80
2023-01-12T23:18:56.717Z,0.97
2023-01-12T23:22:08.710Z,1.10
2023-01-12T23:25:08.753Z,1.50
2023-01-12T23:28:34.752Z,1.40
2023-01-12T23:31:48.759Z,0.97
2023-01-12T23:35:00.775Z,1.00
2023-01-12T23:38:03.774Z,1.33
2023-01-12T23:41:33.771Z,1.47
2023-01-12T23:44:33.801Z,1.10
2023-01-12T23:48:03.853Z,1.80
2023-01-12T23:51:03.815Z,1.10
2023-01-12T23:54:27.812Z,1.93
2023-01-12T23:57:27.816Z,1.63
